sensor_id;sensor_type;location;lat;lon;timestamp;temperature;humidity
1880;DHT22;49285;49.002;8.390;2022-10-31T00:02:08;16.60;99.90
1880;DHT22;49285;49.002;8.390;2022-10-31T00:04:34;16.50;99.90
1880;DHT22;49285;49.002;8.390;2022-10-31T00:06:59;16.50;99.90
1880;DHT22;49285;49.002;8.390;2022-10-31T00:09:25;16.50;99.90
1880;DHT22;49285;49.002;8.390;2022-10-31T00:11:50;16.50;99.90
1880;DHT22;49285;49.002;8.390;2022-10-31T00:14:16;16.50;99.90
1880;DHT22;49285;49.002;8.390;2022-10-31T00:16:41;16.50;99.90
1880;DHT22;49285;49.002;8.390;2022-10-31T00:19:08;16.40;99.90
1880;DHT22;49285;49.002;8.390;2022-10-31T00:21:34;16.40;99.90
1880;DHT22;49285;49.002;8.390;2022-10-31T00:24:00;16.40;99.90
1880;DHT22;49285;49.002;8.390;2022-10-31T00:26:30;16.40;99.90
1880;DHT22;49285;49.002;8.390;2022-10-31T00:28:57;16.40;99.90
1880;DHT22;49285;49.002;8.390;2022-10-31T00:31:23;16.40;99.90
1880;DHT22;49285;49.002;8.390;2022-10-31T00:33:49;16.40;99.90
1880;DHT22;49285;49.002;8.390;2022-10-31T00:36:17;16.30;99.90
1880;DHT22;49285;49.002;8.390;2022-10-31T00:38:43;16.30;99.90
1880;DHT22;49285;49.002;8.390;2022-10-31T00:41:14;16.30;99.90
1880;DHT22;49285;49.002;8.390;2022-10-31T00:43:41;16.30;99.90
1880;DHT22;49285;49.002;8.390;2022-10-31T00:46:06;16.30;99.90
1880;DHT22;49285;49.002;8.390;2022-10-31T00:48:32;16.20;99.90
1880;DHT22;49285;49.002;8.390;2022-10-31T00:50:58;16.20;99.90
1880;DHT22;49285;49.002;8.390;2022-10-31T00:53:24;16.20;99.90
1880;DHT22;49285;49.002;8.390;2022-10-31T00:55:50;16.20;99.90
1880;DHT22;49285;49.002;8.390;2022-10-31T00:58:15;16.20;99.90
1880;DHT22;49285;49.002;8.390;2022-10-31T01:00:41;16.20;99.90
1880;DHT22;49285;49.002;8.390;2022-10-31T01:03:07;16.10;99.90
1880;DHT22;49285;49.002;8.390;2022-10-31T01:05:32;16.10;99.90
1880;DHT22;49285;49.002;8.390;2022-10-31T01:07:58;16.10;99.90
1880;DHT22;49285;49.002;8.390;2022-10-31T01:10:24;16.10;99.90
1880;DHT22;49285;49.002;8.390;2022-10-31T01:12:50;16.10;99.90
1880;DHT22;49285;49.002;8.390;2022-10-31T01:15:19;16.10;99.90
1880;DHT22;49285;49.002;8.390;2022-10-31T01:17:45;16.10;99.90
1880;DHT22;49285;49.002;8.390;2022-10-31T01:20:13;16.00;99.90
1880;DHT22;49285;49.002;8.390;2022-10-31T01:22:38;16.00;99.90
1880;DHT22;49285;49.002;8.390;2022-10-31T01:25:05;16.00;99.90
1880;DHT22;49285;49.002;8.390;2022-10-31T01:27:31;16.00;99.90
1880;DHT22;49285;49.002;8.390;2022-10-31T01:29:57;16.00;99.90
1880;DHT22;49285;49.002;8.390;2022-10-31T01:32:23;16.00;99.90
1880;DHT22;49285;49.002;8.390;2022-10-31T01:34:48;16.00;99.90
1880;DHT22;49285;49.002;8.390;2022-10-31T01:37:14;15.90;99.90
1880;DHT22;49285;49.002;8.390;2022-10-31T01:39:40;15.90;99.90
1880;DHT22;49285;49.002;8.390;2022-10-31T01:42:05;15.90;99.90
1880;DHT22;49285;49.002;8.390;2022-10-31T01:47:01;15.90;99.90
1880;DHT22;49285;49.002;8.390;2022-10-31T01:49:41;15.90;99.90
1880;DHT22;49285;49.002;8.390;2022-10-31T01:52:12;15.90;99.90
1880;DHT22;49285;49.002;8.390;2022-10-31T01:54:47;15.90;99.90
1880;DHT22;49285;49.002;8.390;2022-10-31T01:57:14;15.90;99.90
1880;DHT22;49285;49.002;8.390;2022-10-31T01:59:44;15.90;99.90
1880;DHT22;49285;49.002;8.390;2022-10-31T02:02:11;15.80;99.90
1880;DHT22;49285;49.002;8.390;2022-10-31T02:04:38;15.80;99.90
1880;DHT22;49285;49.002;8.390;2022-10-31T02:07:12;15.80;99.90
1880;DHT22;49285;49.002;8.390;2022-10-31T02:09:39;15.80;99.90
1880;DHT22;49285;49.002;8.390;2022-10-31T02:12:05;15.80;99.90
1880;DHT22;49285;49.002;8.390;2022-10-31T02:14:33;15.80;99.90
1880;DHT22;49285;49.002;8.390;2022-10-31T02:16:59;15.80;99.90
1880;DHT22;49285;49.002;8.390;2022-10-31T02:28:17;15.80;99.90
1880;DHT22;49285;49.002;8.390;2022-10-31T02:31:12;15.80;99.90
1880;DHT22;49285;49.002;8.390;2022-10-31T02:33:55;15.70;99.90
1880;DHT22;49285;49.002;8.390;2022-10-31T02:36:36;15.70;99.90
1880;DHT22;49285;49.002;8.390;2022-10-31T02:39:18;15.70;99.90
1880;DHT22;49285;49.002;8.390;2022-10-31T02:42:09;15.70;99.90
1880;DHT22;49285;49.002;8.390;2022-10-31T02:44:39;15.70;99.90
1880;DHT22;49285;49.002;8.390;2022-10-31T02:47:16;15.60;99.90
1880;DHT22;49285;49.002;8.390;2022-10-31T02:49:48;15.60;99.90
1880;DHT22;49285;49.002;8.390;2022-10-31T02:52:23;15.60;99.90
1880;DHT22;49285;49.002;8.390;2022-10-31T02:54:50;15.60;99.90
1880;DHT22;49285;49.002;8.390;2022-10-31T02:57:18;15.60;99.90
1880;DHT22;49285;49.002;8.390;2022-10-31T02:59:48;15.60;99.90
1880;DHT22;49285;49.002;8.390;2022-10-31T03:02:25;15.60;99.90
1880;DHT22;49285;49.002;8.390;2022-10-31T03:05:14;15.60;99.90
1880;DHT22;49285;49.002;8.390;2022-10-31T03:10:35;15.50;99.90
1880;DHT22;49285;49.002;8.390;2022-10-31T03:19:00;15.50;99.90
1880;DHT22;49285;49.002;8.390;2022-10-31T03:23:53;15.40;99.90
1880;DHT22;49285;49.002;8.390;2022-10-31T03:26:21;15.40;99.90
1880;DHT22;49285;49.002;8.390;2022-10-31T03:28:57;15.40;99.90
1880;DHT22;49285;49.002;8.390;2022-10-31T03:31:29;15.30;99.90
1880;DHT22;49285;49.002;8.390;2022-10-31T03:33:58;15.30;99.90
1880;DHT22;49285;49.002;8.390;2022-10-31T03:36:26;15.30;99.90
1880;DHT22;49285;49.002;8.390;2022-10-31T03:38:54;15.30;99.90
1880;DHT22;49285;49.002;8.390;2022-10-31T03:41:23;15.30;99.90
1880;DHT22;49285;49.002;8.390;2022-10-31T03:43:57;15.30;99.90
1880;DHT22;49285;49.002;8.390;2022-10-31T03:46:25;15.20;99.90
1880;DHT22;49285;49.002;8.390;2022-10-31T03:48:51;15.20;99.90
1880;DHT22;49285;49.002;8.390;2022-10-31T03:51:25;15.20;99.90
1880;DHT22;49285;49.002;8.390;2022-10-31T03:53:55;15.20;99.90
1880;DHT22;49285;49.002;8.390;2022-10-31T03:56:31;15.20;99.90
1880;DHT22;49285;49.002;8.390;2022-10-31T04:01:50;15.20;99.90
1880;DHT22;49285;49.002;8.390;2022-10-31T04:04:19;15.20;99.90
1880;DHT22;49285;49.002;8.390;2022-10-31T04:06:46;15.10;99.90
1880;DHT22;49285;49.002;8.390;2022-10-31T04:09:13;15.10;99.90
1880;DHT22;49285;49.002;8.390;2022-10-31T04:11:46;15.10;99.90
1880;DHT22;49285;49.002;8.390;2022-10-31T04:14:14;15.10;99.90
1880;DHT22;49285;49.002;8.390;2022-10-31T04:16:42;15.00;99.90
1880;DHT22;49285;49.002;8.390;2022-10-31T04:19:09;15.00;99.90
1880;DHT22;49285;49.002;8.390;2022-10-31T04:21:34;15.00;99.90
1880;DHT22;49285;49.002;8.390;2022-10-31T04:24:00;15.00;99.90
1880;DHT22;49285;49.002;8.390;2022-10-31T04:26:26;15.00;99.90
1880;DHT22;49285;49.002;8.390;2022-10-31T04:28:51;15.00;99.90
1880;DHT22;49285;49.002;8.390;2022-10-31T04:31:17;14.90;99.90
1880;DHT22;49285;49.002;8.390;2022-10-31T04:33:43;14.90;99.90
1880;DHT22;49285;49.002;8.390;2022-10-31T04:36:09;14.90;99.90
1880;DHT22;49285;49.002;8.390;2022-10-31T04:38:34;14.90;99.90
1880;DHT22;49285;49.002;8.390;2022-10-31T04:41:00;14.90;99.90
1880;DHT22;49285;49.002;8.390;2022-10-31T04:43:25;14.90;99.90
1880;DHT22;49285;49.002;8.390;2022-10-31T04:45:51;14.90;99.90
1880;DHT22;49285;49.002;8.390;2022-10-31T04:48:17;14.90;99.90
1880;DHT22;49285;49.002;8.390;2022-10-31T04:50:42;14.90;99.90
1880;DHT22;49285;49.002;8.390;2022-10-31T04:53:08;14.90;99.90
1880;DHT22;49285;49.002;8.390;2022-10-31T04:55:35;14.90;99.90
1880;DHT22;49285;49.002;8.390;2022-10-31T04:58:01;14.90;99.90
1880;DHT22;49285;49.002;8.390;2022-10-31T05:00:27;14.90;99.90
1880;DHT22;49285;49.002;8.390;2022-10-31T05:02:54;14.90;99.90
1880;DHT22;49285;49.002;8.390;2022-10-31T05:05:22;14.80;99.90
1880;DHT22;49285;49.002;8.390;2022-10-31T05:07:48;14.80;99.90
1880;DHT22;49285;49.002;8.390;2022-10-31T05:10:20;14.80;99.90
1880;DHT22;49285;49.002;8.390;2022-10-31T05:12:51;14.80;99.90
1880;DHT22;49285;49.002;8.390;2022-10-31T05:15:18;14.80;99.90
1880;DHT22;49285;49.002;8.390;2022-10-31T05:17:45;14.70;99.90
1880;DHT22;49285;49.002;8.390;2022-10-31T05:20:12;14.70;99.90
1880;DHT22;49285;49.002;8.390;2022-10-31T05:22:42;14.70;99.90
1880;DHT22;49285;49.002;8.390;2022-10-31T05:25:08;14.70;99.90
1880;DHT22;49285;49.002;8.390;2022-10-31T05:27:34;14.70;99.90
1880;DHT22;49285;49.002;8.390;2022-10-31T05:29:59;14.70;99.90
1880;DHT22;49285;49.002;8.390;2022-10-31T05:32:25;14.70;99.90
1880;DHT22;49285;49.002;8.390;2022-10-31T05:34:50;14.70;99.90
1880;DHT22;49285;49.002;8.390;2022-10-31T05:37:16;14.60;99.90
1880;DHT22;49285;49.002;8.390;2022-10-31T05:39:41;14.70;99.90
1880;DHT22;49285;49.002;8.390;2022-10-31T05:42:07;14.70;99.90
1880;DHT22;49285;49.002;8.390;2022-10-31T05:44:32;14.70;99.90
1880;DHT22;49285;49.002;8.390;2022-10-31T05:46:58;14.70;99.90
1880;DHT22;49285;49.002;8.390;2022-10-31T05:49:23;14.70;99.90
1880;DHT22;49285;49.002;8.390;2022-10-31T05:51:49;14.70;99.90
1880;DHT22;49285;49.002;8.390;2022-10-31T05:54:15;14.60;99.90
1880;DHT22;49285;49.002;8.390;2022-10-31T05:56:40;14.60;99.90
1880;DHT22;49285;49.002;8.390;2022-10-31T05:59:06;14.60;99.90
1880;DHT22;49285;49.002;8.390;2022-10-31T06:01:31;14.60;99.90
1880;DHT22;49285;49.002;8.390;2022-10-31T06:03:57;14.50;99.90
1880;DHT22;49285;49.002;8.390;2022-10-31T06:06:22;14.50;99.90
1880;DHT22;49285;49.002;8.390;2022-10-31T06:08:48;14.50;99.90
1880;DHT22;49285;49.002;8.390;2022-10-31T06:11:13;14.50;99.90
1880;DHT22;49285;49.002;8.390;2022-10-31T06:13:39;14.40;99.90
1880;DHT22;49285;49.002;8.390;2022-10-31T06:16:05;14.40;99.90
1880;DHT22;49285;49.002;8.390;2022-10-31T06:18:30;14.40;99.90
1880;DHT22;49285;49.002;8.390;2022-10-31T06:20:56;14.40;99.90
1880;DHT22;49285;49.002;8.390;2022-10-31T06:23:21;14.40;99.90
1880;DHT22;49285;49.002;8.390;2022-10-31T06:25:50;14.40;99.90
1880;DHT22;49285;49.002;8.390;2022-10-31T06:28:16;14.40;99.90
1880;DHT22;49285;49.002;8.390;2022-10-31T06:30:41;14.40;99.90
1880;DHT22;49285;49.002;8.390;2022-10-31T06:33:07;14.30;99.90
1880;DHT22;49285;49.002;8.390;2022-10-31T06:35:33;14.40;99.90
1880;DHT22;49285;49.002;8.390;2022-10-31T06:37:58;14.40;99.90
1880;DHT22;49285;49.002;8.390;2022-10-31T06:40:24;14.40;99.90
1880;DHT22;49285;49.002;8.390;2022-10-31T06:43:00;14.40;99.90
1880;DHT22;49285;49.002;8.390;2022-10-31T06:45:26;14.40;99.90
1880;DHT22;49285;49.002;8.390;2022-10-31T06:47:55;14.40;99.90
1880;DHT22;49285;49.002;8.390;2022-10-31T06:50:22;14.40;99.90
1880;DHT22;49285;49.002;8.390;2022-10-31T06:52:52;14.40;99.90
1880;DHT22;49285;49.002;8.390;2022-10-31T06:55:17;14.50;99.90
1880;DHT22;49285;49.002;8.390;2022-10-31T06:57:49;14.50;99.90
1880;DHT22;49285;49.002;8.390;2022-10-31T07:00:15;14.50;99.90
1880;DHT22;49285;49.002;8.390;2022-10-31T07:02:41;14.50;99.90
1880;DHT22;49285;49.002;8.390;2022-10-31T07:05:07;14.60;99.90
1880;DHT22;49285;49.002;8.390;2022-10-31T07:07:32;14.60;99.90
1880;DHT22;49285;49.002;8.390;2022-10-31T07:09:58;14.60;99.90
1880;DHT22;49285;49.002;8.390;2022-10-31T07:12:23;14.60;99.90
1880;DHT22;49285;49.002;8.390;2022-10-31T07:14:49;14.70;99.90
1880;DHT22;49285;49.002;8.390;2022-10-31T07:17:14;14.70;99.90
1880;DHT22;49285;49.002;8.390;2022-10-31T07:19:41;14.70;99.90
1880;DHT22;49285;49.002;8.390;2022-10-31T07:22:06;14.70;99.90
1880;DHT22;49285;49.002;8.390;2022-10-31T07:24:32;14.80;99.90
1880;DHT22;49285;49.002;8.390;2022-10-31T07:26:57;14.80;99.90
1880;DHT22;49285;49.002;8.390;2022-10-31T07:29:23;14.80;99.90
1880;DHT22;49285;49.002;8.390;2022-10-31T07:31:49;14.90;99.90
1880;DHT22;49285;49.002;8.390;2022-10-31T07:34:14;14.90;99.90
1880;DHT22;49285;49.002;8.390;2022-10-31T07:36:40;15.00;99.90
1880;DHT22;49285;49.002;8.390;2022-10-31T07:39:05;15.00;99.90
1880;DHT22;49285;49.002;8.390;2022-10-31T07:41:31;15.10;99.90
1880;DHT22;49285;49.002;8.390;2022-10-31T07:43:56;15.10;99.90
1880;DHT22;49285;49.002;8.390;2022-10-31T07:46:22;15.10;99.90
1880;DHT22;49285;49.002;8.390;2022-10-31T07:48:48;15.10;99.90
1880;DHT22;49285;49.002;8.390;2022-10-31T07:51:13;15.20;99.90
1880;DHT22;49285;49.002;8.390;2022-10-31T07:53:39;15.20;99.90
1880;DHT22;49285;49.002;8.390;2022-10-31T07:56:04;15.20;99.90
1880;DHT22;49285;49.002;8.390;2022-10-31T07:58:30;15.30;99.90
1880;DHT22;49285;49.002;8.390;2022-10-31T08:00:57;15.30;99.90
1880;DHT22;49285;49.002;8.390;2022-10-31T08:03:23;15.40;99.90
1880;DHT22;49285;49.002;8.390;2022-10-31T08:05:48;15.40;99.90
1880;DHT22;49285;49.002;8.390;2022-10-31T08:08:14;15.40;99.90
1880;DHT22;49285;49.002;8.390;2022-10-31T08:10:40;15.50;99.90
1880;DHT22;49285;49.002;8.390;2022-10-31T08:13:13;15.50;99.90
1880;DHT22;49285;49.002;8.390;2022-10-31T08:15:39;15.60;99.90
1880;DHT22;49285;49.002;8.390;2022-10-31T08:18:14;15.60;99.90
1880;DHT22;49285;49.002;8.390;2022-10-31T08:20:41;15.70;99.90
1880;DHT22;49285;49.002;8.390;2022-10-31T08:23:06;15.70;99.90
1880;DHT22;49285;49.002;8.390;2022-10-31T08:25:34;15.80;99.90
1880;DHT22;49285;49.002;8.390;2022-10-31T08:27:59;15.90;99.90
1880;DHT22;49285;49.002;8.390;2022-10-31T08:30:28;15.90;99.90
1880;DHT22;49285;49.002;8.390;2022-10-31T08:33:14;15.90;99.90
1880;DHT22;49285;49.002;8.390;2022-10-31T08:35:40;16.00;99.90
1880;DHT22;49285;49.002;8.390;2022-10-31T08:38:05;16.00;99.90
1880;DHT22;49285;49.002;8.390;2022-10-31T08:40:33;16.10;99.90
1880;DHT22;49285;49.002;8.390;2022-10-31T08:45:28;16.20;99.90
1880;DHT22;49285;49.002;8.390;2022-10-31T08:48:02;16.20;99.90
1880;DHT22;49285;49.002;8.390;2022-10-31T08:50:29;16.20;99.90
1880;DHT22;49285;49.002;8.390;2022-10-31T08:53:21;16.30;99.90
1880;DHT22;49285;49.002;8.390;2022-10-31T08:55:48;16.40;99.90
1880;DHT22;49285;49.002;8.390;2022-10-31T08:58:18;16.40;99.90
1880;DHT22;49285;49.002;8.390;2022-10-31T09:00:45;16.40;99.90
1880;DHT22;49285;49.002;8.390;2022-10-31T09:03:13;16.50;99.90
1880;DHT22;49285;49.002;8.390;2022-10-31T09:05:39;16.50;99.90
1880;DHT22;49285;49.002;8.390;2022-10-31T09:08:06;16.60;99.90
1880;DHT22;49285;49.002;8.390;2022-10-31T09:10:33;16.60;99.90
1880;DHT22;49285;49.002;8.390;2022-10-31T09:13:01;16.60;99.90
1880;DHT22;49285;49.002;8.390;2022-10-31T09:15:27;16.70;99.90
1880;DHT22;49285;49.002;8.390;2022-10-31T09:17:53;16.70;99.90
1880;DHT22;49285;49.002;8.390;2022-10-31T09:20:19;16.70;99.90
1880;DHT22;49285;49.002;8.390;2022-10-31T09:22:45;16.70;99.90
1880;DHT22;49285;49.002;8.390;2022-10-31T09:25:11;16.80;99.90
1880;DHT22;49285;49.002;8.390;2022-10-31T09:27:37;16.90;99.90
1880;DHT22;49285;49.002;8.390;2022-10-31T09:30:03;17.00;99.90
1880;DHT22;49285;49.002;8.390;2022-10-31T09:32:29;17.00;99.90
1880;DHT22;49285;49.002;8.390;2022-10-31T09:34:54;17.00;99.90
1880;DHT22;49285;49.002;8.390;2022-10-31T09:37:20;17.00;99.90
1880;DHT22;49285;49.002;8.390;2022-10-31T09:39:45;17.00;99.90
1880;DHT22;49285;49.002;8.390;2022-10-31T09:50:48;17.00;99.90
1880;DHT22;49285;49.002;8.390;2022-10-31T09:53:23;17.10;99.90
1880;DHT22;49285;49.002;8.390;2022-10-31T09:55:51;17.10;99.90
1880;DHT22;49285;49.002;8.390;2022-10-31T09:58:24;17.20;99.90
1880;DHT22;49285;49.002;8.390;2022-10-31T10:00:50;17.30;99.90
1880;DHT22;49285;49.002;8.390;2022-10-31T10:08:33;17.50;99.90
1880;DHT22;49285;49.002;8.390;2022-10-31T10:22:23;17.70;99.90
1880;DHT22;49285;49.002;8.390;2022-10-31T10:27:46;17.90;99.90
1880;DHT22;49285;49.002;8.390;2022-10-31T10:30:21;17.90;99.90
1880;DHT22;49285;49.002;8.390;2022-10-31T10:32:54;18.00;99.90
1880;DHT22;49285;49.002;8.390;2022-10-31T10:35:35;18.10;99.90
1880;DHT22;49285;49.002;8.390;2022-10-31T10:40:38;18.20;99.90
1880;DHT22;49285;49.002;8.390;2022-10-31T10:54:23;18.50;99.90
1880;DHT22;49285;49.002;8.390;2022-10-31T10:59:25;18.60;99.90
1880;DHT22;49285;49.002;8.390;2022-10-31T11:01:52;18.70;99.90
1880;DHT22;49285;49.002;8.390;2022-10-31T11:04:33;18.80;99.90
1880;DHT22;49285;49.002;8.390;2022-10-31T11:07:01;18.80;99.90
1880;DHT22;49285;49.002;8.390;2022-10-31T11:09:26;18.90;99.90
1880;DHT22;49285;49.002;8.390;2022-10-31T11:11:52;19.00;99.90
1880;DHT22;49285;49.002;8.390;2022-10-31T11:14:19;19.10;99.90
1880;DHT22;49285;49.002;8.390;2022-10-31T11:16:48;19.10;99.90
1880;DHT22;49285;49.002;8.390;2022-10-31T11:19:22;19.20;99.90
1880;DHT22;49285;49.002;8.390;2022-10-31T11:21:48;19.30;99.90
1880;DHT22;49285;49.002;8.390;2022-10-31T11:24:20;19.30;99.90
1880;DHT22;49285;49.002;8.390;2022-10-31T11:26:48;19.40;99.90
1880;DHT22;49285;49.002;8.390;2022-10-31T11:29:22;19.50;99.90
1880;DHT22;49285;49.002;8.390;2022-10-31T11:31:52;19.50;99.90
1880;DHT22;49285;49.002;8.390;2022-10-31T11:36:53;19.50;99.90
1880;DHT22;49285;49.002;8.390;2022-10-31T11:39:21;19.60;99.90
1880;DHT22;49285;49.002;8.390;2022-10-31T11:41:49;19.50;99.90
1880;DHT22;49285;49.002;8.390;2022-10-31T11:44:18;19.50;99.90
1880;DHT22;49285;49.002;8.390;2022-10-31T11:47:02;19.60;99.90
1880;DHT22;49285;49.002;8.390;2022-10-31T11:49:36;19.70;99.90
1880;DHT22;49285;49.002;8.390;2022-10-31T11:52:19;19.60;99.90
1880;DHT22;49285;49.002;8.390;2022-10-31T11:55:30;19.50;99.90
1880;DHT22;49285;49.002;8.390;2022-10-31T11:57:45;19.60;99.90
1880;DHT22;49285;49.002;8.390;2022-10-31T12:00:25;19.70;99.90
1880;DHT22;49285;49.002;8.390;2022-10-31T12:03:01;19.70;99.90
1880;DHT22;49285;49.002;8.390;2022-10-31T12:05:29;19.80;99.90
1880;DHT22;49285;49.002;8.390;2022-10-31T12:07:58;19.80;99.90
1880;DHT22;49285;49.002;8.390;2022-10-31T12:10:34;19.70;99.90
1880;DHT22;49285;49.002;8.390;2022-10-31T12:15:38;19.60;99.90
1880;DHT22;49285;49.002;8.390;2022-10-31T12:18:39;19.70;99.90
1880;DHT22;49285;49.002;8.390;2022-10-31T12:21:21;19.70;99.90
1880;DHT22;49285;49.002;8.390;2022-10-31T12:24:15;19.80;99.90
1880;DHT22;49285;49.002;8.390;2022-10-31T12:26:58;19.80;99.90
1880;DHT22;49285;49.002;8.390;2022-10-31T12:35:50;20.00;99.90
1880;DHT22;49285;49.002;8.390;2022-10-31T12:44:05;20.00;99.90
1880;DHT22;49285;49.002;8.390;2022-10-31T12:47:17;20.00;99.90
1880;DHT22;49285;49.002;8.390;2022-10-31T12:49:42;20.00;99.90
1880;DHT22;49285;49.002;8.390;2022-10-31T12:57:46;19.90;99.90
1880;DHT22;49285;49.002;8.390;2022-10-31T13:00:15;19.90;99.90
1880;DHT22;49285;49.002;8.390;2022-10-31T13:02:51;20.30;99.90
1880;DHT22;49285;49.002;8.390;2022-10-31T13:08:03;21.40;99.90
1880;DHT22;49285;49.002;8.390;2022-10-31T13:16:26;22.50;99.90
1880;DHT22;49285;49.002;8.390;2022-10-31T13:19:16;22.80;99.90
1880;DHT22;49285;49.002;8.390;2022-10-31T13:22:00;22.80;99.90
1880;DHT22;49285;49.002;8.390;2022-10-31T13:27:44;23.40;99.90
1880;DHT22;49285;49.002;8.390;2022-10-31T13:30:18;23.90;99.90
1880;DHT22;49285;49.002;8.390;2022-10-31T13:35:42;24.50;99.90
1880;DHT22;49285;49.002;8.390;2022-10-31T13:38:24;24.60;99.90
1880;DHT22;49285;49.002;8.390;2022-10-31T13:44:24;24.70;99.90
1880;DHT22;49285;49.002;8.390;2022-10-31T13:46:52;24.60;99.90
1880;DHT22;49285;49.002;8.390;2022-10-31T13:57:18;23.70;99.90
1880;DHT22;49285;49.002;8.390;2022-10-31T13:59:59;23.50;99.90
1880;DHT22;49285;49.002;8.390;2022-10-31T14:02:29;23.30;99.90
1880;DHT22;49285;49.002;8.390;2022-10-31T14:04:58;23.00;99.90
1880;DHT22;49285;49.002;8.390;2022-10-31T14:07:25;22.70;99.90
1880;DHT22;49285;49.002;8.390;2022-10-31T14:10:03;22.40;99.90
1880;DHT22;49285;49.002;8.390;2022-10-31T14:12:43;22.20;99.90
1880;DHT22;49285;49.002;8.390;2022-10-31T14:28:50;20.80;99.90
1880;DHT22;49285;49.002;8.390;2022-10-31T14:31:37;20.80;99.90
1880;DHT22;49285;49.002;8.390;2022-10-31T14:37:08;20.60;99.90
1880;DHT22;49285;49.002;8.390;2022-10-31T14:45:49;20.60;99.90
1880;DHT22;49285;49.002;8.390;2022-10-31T14:51:00;20.60;99.90
1880;DHT22;49285;49.002;8.390;2022-10-31T14:53:32;20.60;99.90
1880;DHT22;49285;49.002;8.390;2022-10-31T14:55:59;20.50;99.90
1880;DHT22;49285;49.002;8.390;2022-10-31T14:58:35;20.50;99.90
1880;DHT22;49285;49.002;8.390;2022-10-31T15:01:03;20.50;99.90
1880;DHT22;49285;49.002;8.390;2022-10-31T15:03:44;20.40;99.90
1880;DHT22;49285;49.002;8.390;2022-10-31T15:06:14;20.40;99.90
1880;DHT22;49285;49.002;8.390;2022-10-31T15:08:49;20.40;99.90
1880;DHT22;49285;49.002;8.390;2022-10-31T15:11:18;20.40;99.90
1880;DHT22;49285;49.002;8.390;2022-10-31T15:13:55;20.30;99.90
1880;DHT22;49285;49.002;8.390;2022-10-31T15:16:27;20.30;99.90
1880;DHT22;49285;49.002;8.390;2022-10-31T15:19:00;20.20;99.90
1880;DHT22;49285;49.002;8.390;2022-10-31T15:21:28;20.20;99.90
1880;DHT22;49285;49.002;8.390;2022-10-31T15:23:56;20.10;99.90
1880;DHT22;49285;49.002;8.390;2022-10-31T15:26:27;20.10;99.90
1880;DHT22;49285;49.002;8.390;2022-10-31T15:29:02;20.00;99.90
1880;DHT22;49285;49.002;8.390;2022-10-31T15:31:28;20.00;99.90
1880;DHT22;49285;49.002;8.390;2022-10-31T15:33:55;19.90;99.90
1880;DHT22;49285;49.002;8.390;2022-10-31T15:36:26;19.90;99.90
1880;DHT22;49285;49.002;8.390;2022-10-31T15:38:52;19.80;99.90
1880;DHT22;49285;49.002;8.390;2022-10-31T15:41:35;19.80;99.90
1880;DHT22;49285;49.002;8.390;2022-10-31T15:44:15;19.70;99.90
1880;DHT22;49285;49.002;8.390;2022-10-31T15:46:42;19.70;99.90
1880;DHT22;49285;49.002;8.390;2022-10-31T15:49:35;19.70;99.90
1880;DHT22;49285;49.002;8.390;2022-10-31T15:54:32;19.50;99.90
1880;DHT22;49285;49.002;8.390;2022-10-31T15:56:57;19.50;99.90
1880;DHT22;49285;49.002;8.390;2022-10-31T15:59:26;19.50;99.90
1880;DHT22;49285;49.002;8.390;2022-10-31T16:02:00;19.40;99.90
1880;DHT22;49285;49.002;8.390;2022-10-31T16:04:27;19.40;99.90
1880;DHT22;49285;49.002;8.390;2022-10-31T16:07:14;19.30;99.90
1880;DHT22;49285;49.002;8.390;2022-10-31T16:12:18;19.20;99.90
1880;DHT22;49285;49.002;8.390;2022-10-31T16:14:44;19.10;99.90
1880;DHT22;49285;49.002;8.390;2022-10-31T16:17:14;19.10;99.90
1880;DHT22;49285;49.002;8.390;2022-10-31T16:20:00;19.10;99.90
1880;DHT22;49285;49.002;8.390;2022-10-31T16:22:30;19.10;99.90
1880;DHT22;49285;49.002;8.390;2022-10-31T16:25:23;18.90;99.90
1880;DHT22;49285;49.002;8.390;2022-10-31T16:27:52;18.80;99.90
1880;DHT22;49285;49.002;8.390;2022-10-31T16:30:35;18.80;99.90
1880;DHT22;49285;49.002;8.390;2022-10-31T16:33:02;18.80;99.90
1880;DHT22;49285;49.002;8.390;2022-10-31T16:35:37;18.80;99.90
1880;DHT22;49285;49.002;8.390;2022-10-31T16:38:04;18.80;99.90
1880;DHT22;49285;49.002;8.390;2022-10-31T16:40:31;18.80;99.90
1880;DHT22;49285;49.002;8.390;2022-10-31T16:42:58;18.80;99.90
1880;DHT22;49285;49.002;8.390;2022-10-31T16:45:29;18.80;99.90
1880;DHT22;49285;49.002;8.390;2022-10-31T16:48:05;18.70;99.90
1880;DHT22;49285;49.002;8.390;2022-10-31T16:50:31;18.70;99.90
1880;DHT22;49285;49.002;8.390;2022-10-31T16:52:57;18.70;99.90
1880;DHT22;49285;49.002;8.390;2022-10-31T16:55:22;18.70;99.90
1880;DHT22;49285;49.002;8.390;2022-10-31T16:57:50;18.70;99.90
1880;DHT22;49285;49.002;8.390;2022-10-31T17:00:20;18.60;99.90
1880;DHT22;49285;49.002;8.390;2022-10-31T17:02:47;18.60;99.90
1880;DHT22;49285;49.002;8.390;2022-10-31T17:05:16;18.60;99.90
1880;DHT22;49285;49.002;8.390;2022-10-31T17:07:42;18.60;99.90
1880;DHT22;49285;49.002;8.390;2022-10-31T17:10:08;18.60;99.90
1880;DHT22;49285;49.002;8.390;2022-10-31T17:12:34;18.60;99.90
1880;DHT22;49285;49.002;8.390;2022-10-31T17:15:00;18.50;99.90
1880;DHT22;49285;49.002;8.390;2022-10-31T17:17:26;18.50;99.90
1880;DHT22;49285;49.002;8.390;2022-10-31T17:19:52;18.50;99.90
1880;DHT22;49285;49.002;8.390;2022-10-31T17:22:17;18.40;99.90
1880;DHT22;49285;49.002;8.390;2022-10-31T17:24:43;18.40;99.90
1880;DHT22;49285;49.002;8.390;2022-10-31T17:27:08;18.40;99.90
1880;DHT22;49285;49.002;8.390;2022-10-31T17:29:34;18.40;99.90
1880;DHT22;49285;49.002;8.390;2022-10-31T17:32:00;18.30;99.90
1880;DHT22;49285;49.002;8.390;2022-10-31T17:34:27;18.30;99.90
1880;DHT22;49285;49.002;8.390;2022-10-31T17:36:52;18.20;99.90
1880;DHT22;49285;49.002;8.390;2022-10-31T17:39:18;18.20;99.90
1880;DHT22;49285;49.002;8.390;2022-10-31T17:41:45;18.20;99.90
1880;DHT22;49285;49.002;8.390;2022-10-31T17:44:11;18.20;99.90
1880;DHT22;49285;49.002;8.390;2022-10-31T17:46:37;18.20;99.90
1880;DHT22;49285;49.002;8.390;2022-10-31T17:49:03;18.20;99.90
1880;DHT22;49285;49.002;8.390;2022-10-31T17:51:31;18.20;99.90
1880;DHT22;49285;49.002;8.390;2022-10-31T17:53:57;18.20;99.90
1880;DHT22;49285;49.002;8.390;2022-10-31T17:56:23;18.20;99.90
1880;DHT22;49285;49.002;8.390;2022-10-31T17:58:49;18.20;99.90
1880;DHT22;49285;49.002;8.390;2022-10-31T18:01:16;18.20;99.90
1880;DHT22;49285;49.002;8.390;2022-10-31T18:03:42;18.20;99.90
1880;DHT22;49285;49.002;8.390;2022-10-31T18:06:09;18.20;99.90
1880;DHT22;49285;49.002;8.390;2022-10-31T18:08:37;18.10;99.90
1880;DHT22;49285;49.002;8.390;2022-10-31T18:11:07;18.00;99.90
1880;DHT22;49285;49.002;8.390;2022-10-31T18:13:36;18.00;99.90
1880;DHT22;49285;49.002;8.390;2022-10-31T18:16:15;18.00;99.90
1880;DHT22;49285;49.002;8.390;2022-10-31T18:18:43;17.90;99.90
1880;DHT22;49285;49.002;8.390;2022-10-31T18:21:09;17.80;99.90
1880;DHT22;49285;49.002;8.390;2022-10-31T18:23:34;17.70;99.90
1880;DHT22;49285;49.002;8.390;2022-10-31T18:26:00;17.70;99.90
1880;DHT22;49285;49.002;8.390;2022-10-31T18:28:25;17.70;99.90
1880;DHT22;49285;49.002;8.390;2022-10-31T18:30:51;17.60;99.90